sensor_id;sensor_type;location;lat;lon;timestamp;pressure;altitude;pressure_sealevel;temperature;humidity
29417;BME280;28421;51.030;4.006;2022-12-29T00:02:03;100064.97;;;11.44;83.06
29417;BME280;28421;51.030;4.006;2022-12-29T00:04:29;100018.44;;;10.94;83.42
29417;BME280;28421;51.030;4.006;2022-12-29T00:06:54;100063.28;;;11.08;84.10
29417;BME280;28421;51.030;4.006;2022-12-29T00:09:20;100064.25;;;11.29;83.45
29417;BME280;28421;51.030;4.006;2022-12-29T00:11:45;100028.97;;;11.17;82.83
29417;BME280;28421;51.030;4.006;2022-12-29T00:14:12;100056.31;;;11.49;82.39
29417;BME280;28421;51.030;4.006;2022-12-29T00:16:56;100025.84;;;11.41;80.99
29417;BME280;28421;51.030;4.006;2022-12-29T00:19:22;100026.50;;;11.50;80.50
29417;BME280;28421;51.030;4.006;2022-12-29T00:22:09;100019.50;;;11.56;79.89
29417;BME280;28421;51.030;4.006;2022-12-29T00:24:53;100034.59;;;11.57;79.69
29417;BME280;28421;51.030;4.006;2022-12-29T00:27:34;99997.44;;;11.32;80.76
29417;BME280;28421;51.030;4.006;2022-12-29T00:30:21;100027.56;;;11.56;79.82
29417;BME280;28421;51.030;4.006;2022-12-29T00:33:13;100018.66;;;11.55;79.07
29417;BME280;28421;51.030;4.006;2022-12-29T00:38:31;100017.63;;;11.56;77.98
29417;BME280;28421;51.030;4.006;2022-12-29T00:41:16;100022.19;;;11.56;77.47
29417;BME280;28421;51.030;4.006;2022-12-29T00:44:01;100032.34;;;11.60;77.31
29417;BME280;28421;51.030;4.006;2022-12-29T00:46:40;100013.75;;;11.65;76.08
29417;BME280;28421;51.030;4.006;2022-12-29T00:49:07;100008.78;;;11.69;76.04
29417;BME280;28421;51.030;4.006;2022-12-29T00:51:51;100028.50;;;11.76;76.09
29417;BME280;28421;51.030;4.006;2022-12-29T00:54:18;100047.22;;;11.84;75.70
29417;BME280;28421;51.030;4.006;2022-12-29T00:56:46;100046.44;;;11.90;75.41
29417;BME280;28421;51.030;4.006;2022-12-29T00:59:13;100043.44;;;11.79;75.66
29417;BME280;28421;51.030;4.006;2022-12-29T01:01:39;100023.72;;;11.72;75.14
29417;BME280;28421;51.030;4.006;2022-12-29T01:04:05;100054.47;;;11.84;74.60
29417;BME280;28421;51.030;4.006;2022-12-29T01:06:32;100000.22;;;11.52;74.44
29417;BME280;28421;51.030;4.006;2022-12-29T01:08:57;100009.63;;;11.69;73.94
29417;BME280;28421;51.030;4.006;2022-12-29T01:11:42;100015.81;;;11.63;73.63
29417;BME280;28421;51.030;4.006;2022-12-29T01:14:07;100009.97;;;11.60;73.78
29417;BME280;28421;51.030;4.006;2022-12-29T01:16:33;100056.56;;;11.88;74.24
29417;BME280;28421;51.030;4.006;2022-12-29T01:18:59;100057.00;;;11.92;74.00
29417;BME280;28421;51.030;4.006;2022-12-29T01:21:26;100029.16;;;11.78;74.30
29417;BME280;28421;51.030;4.006;2022-12-29T01:23:51;100023.34;;;11.75;74.25
29417;BME280;28421;51.030;4.006;2022-12-29T01:26:18;100055.34;;;11.98;74.35
29417;BME280;28421;51.030;4.006;2022-12-29T01:28:44;100041.22;;;11.89;74.47
29417;BME280;28421;51.030;4.006;2022-12-29T01:31:11;100013.19;;;11.77;74.41
29417;BME280;28421;51.030;4.006;2022-12-29T01:33:38;100056.59;;;11.95;75.20
29417;BME280;28421;51.030;4.006;2022-12-29T01:36:06;100023.69;;;11.65;75.28
29417;BME280;28421;51.030;4.006;2022-12-29T01:38:33;100072.94;;;11.87;75.88
29417;BME280;28421;51.030;4.006;2022-12-29T01:40:59;100038.38;;;11.62;76.38
29417;BME280;28421;51.030;4.006;2022-12-29T01:46:18;100038.56;;;11.61;77.24
29417;BME280;28421;51.030;4.006;2022-12-29T01:48:47;100015.09;;;11.48;77.25
29417;BME280;28421;51.030;4.006;2022-12-29T01:51:14;100032.94;;;11.49;77.65
29417;BME280;28421;51.030;4.006;2022-12-29T01:53:41;100074.00;;;11.58;77.53
29417;BME280;28421;51.030;4.006;2022-12-29T01:56:12;100052.25;;;11.59;77.10
29417;BME280;28421;51.030;4.006;2022-12-29T01:58:45;100065.31;;;11.62;77.18
29417;BME280;28421;51.030;4.006;2022-12-29T02:01:11;100070.47;;;11.57;77.42
29417;BME280;28421;51.030;4.006;2022-12-29T02:03:37;100036.69;;;11.55;76.90
29417;BME280;28421;51.030;4.006;2022-12-29T02:06:22;100047.91;;;11.65;76.58
29417;BME280;28421;51.030;4.006;2022-12-29T02:08:50;100051.47;;;11.72;76.97
29417;BME280;28421;51.030;4.006;2022-12-29T02:11:18;100031.84;;;11.43;77.36
29417;BME280;28421;51.030;4.006;2022-12-29T02:13:43;100037.47;;;11.49;77.36
29417;BME280;28421;51.030;4.006;2022-12-29T02:16:31;100035.03;;;11.60;76.47
29417;BME280;28421;51.030;4.006;2022-12-29T02:22:14;100055.81;;;11.66;76.71
29417;BME280;28421;51.030;4.006;2022-12-29T02:41:00;100000.66;;;11.21;76.66
29417;BME280;28421;51.030;4.006;2022-12-29T02:44:12;100018.91;;;11.26;76.97
29417;BME280;28421;51.030;4.006;2022-12-29T02:49:51;99952.78;;;10.82;77.17
29417;BME280;28421;51.030;4.006;2022-12-29T02:52:31;100008.72;;;11.21;77.11
29417;BME280;28421;51.030;4.006;2022-12-29T02:54:59;100008.66;;;11.14;77.20
29417;BME280;28421;51.030;4.006;2022-12-29T03:00:01;100006.69;;;10.95;76.85
29417;BME280;28421;51.030;4.006;2022-12-29T03:16:32;100035.38;;;10.88;75.94
29417;BME280;28421;51.030;4.006;2022-12-29T03:19:15;99996.03;;;10.59;75.56
29417;BME280;28421;51.030;4.006;2022-12-29T03:22:10;100043.25;;;10.89;75.12
29417;BME280;28421;51.030;4.006;2022-12-29T03:25:06;99993.97;;;10.39;75.93
29417;BME280;28421;51.030;4.006;2022-12-29T03:27:38;100012.22;;;10.44;75.82
29417;BME280;28421;51.030;4.006;2022-12-29T03:30:06;100043.13;;;10.55;75.70
29417;BME280;28421;51.030;4.006;2022-12-29T03:32:35;100058.34;;;10.69;75.83
29417;BME280;28421;51.030;4.006;2022-12-29T03:35:03;100053.94;;;10.61;75.59
29417;BME280;28421;51.030;4.006;2022-12-29T03:37:33;100050.88;;;10.64;75.50
29417;BME280;28421;51.030;4.006;2022-12-29T03:40:02;100018.66;;;10.28;75.86
29417;BME280;28421;51.030;4.006;2022-12-29T03:42:31;100021.63;;;10.33;75.46
29417;BME280;28421;51.030;4.006;2022-12-29T03:44:57;100029.03;;;10.31;74.94
29417;BME280;28421;51.030;4.006;2022-12-29T03:47:24;100033.78;;;10.29;75.09
29417;BME280;28421;51.030;4.006;2022-12-29T03:49:50;100027.84;;;10.34;74.24
29417;BME280;28421;51.030;4.006;2022-12-29T03:52:16;100033.94;;;10.28;74.05
29417;BME280;28421;51.030;4.006;2022-12-29T03:54:44;100013.13;;;10.30;73.60
29417;BME280;28421;51.030;4.006;2022-12-29T03:57:11;100011.53;;;10.20;73.76
29417;BME280;28421;51.030;4.006;2022-12-29T04:00:06;99992.56;;;10.07;73.19
29417;BME280;28421;51.030;4.006;2022-12-29T04:02:40;100012.22;;;10.08;73.31
29417;BME280;28421;51.030;4.006;2022-12-29T04:05:07;100054.25;;;10.30;73.32
29417;BME280;28421;51.030;4.006;2022-12-29T04:07:32;100052.00;;;10.19;73.24
29417;BME280;28421;51.030;4.006;2022-12-29T04:09:58;100031.50;;;9.96;73.28
29417;BME280;28421;51.030;4.006;2022-12-29T04:12:26;100050.78;;;10.00;72.95
29417;BME280;28421;51.030;4.006;2022-12-29T04:14:52;100045.91;;;10.10;72.81
29417;BME280;28421;51.030;4.006;2022-12-29T04:17:18;100049.31;;;10.19;72.32
29417;BME280;28421;51.030;4.006;2022-12-29T04:19:46;100049.78;;;10.23;72.08
29417;BME280;28421;51.030;4.006;2022-12-29T04:22:11;100084.03;;;10.50;72.30
29417;BME280;28421;51.030;4.006;2022-12-29T04:24:37;100044.41;;;10.23;72.55
29417;BME280;28421;51.030;4.006;2022-12-29T04:27:03;100061.94;;;10.33;72.67
29417;BME280;28421;51.030;4.006;2022-12-29T04:29:43;100029.41;;;10.28;72.00
29417;BME280;28421;51.030;4.006;2022-12-29T04:32:24;100048.97;;;10.37;72.19
29417;BME280;28421;51.030;4.006;2022-12-29T04:34:52;100038.13;;;10.30;71.82
29417;BME280;28421;51.030;4.006;2022-12-29T04:37:18;100057.75;;;10.31;71.64
29417;BME280;28421;51.030;4.006;2022-12-29T04:39:43;100047.16;;;10.44;71.54
29417;BME280;28421;51.030;4.006;2022-12-29T04:42:09;100053.44;;;10.51;70.82
29417;BME280;28421;51.030;4.006;2022-12-29T04:44:34;100078.72;;;10.78;70.69
29417;BME280;28421;51.030;4.006;2022-12-29T04:47:32;100063.69;;;10.62;71.20
29417;BME280;28421;51.030;4.006;2022-12-29T04:50:19;100079.56;;;10.79;71.02
29417;BME280;28421;51.030;4.006;2022-12-29T04:53:03;100039.91;;;10.44;71.14
29417;BME280;28421;51.030;4.006;2022-12-29T04:55:31;100049.34;;;10.55;70.97
29417;BME280;28421;51.030;4.006;2022-12-29T04:57:56;100074.69;;;10.46;71.46
29417;BME280;28421;51.030;4.006;2022-12-29T05:00:23;100062.41;;;10.37;71.73
29417;BME280;28421;51.030;4.006;2022-12-29T05:02:48;100063.13;;;10.31;71.84
29417;BME280;28421;51.030;4.006;2022-12-29T05:05:14;100052.28;;;10.24;71.50
29417;BME280;28421;51.030;4.006;2022-12-29T05:07:44;100066.13;;;10.06;71.71
29417;BME280;28421;51.030;4.006;2022-12-29T05:10:10;100049.84;;;10.08;71.28
29417;BME280;28421;51.030;4.006;2022-12-29T05:12:36;100090.47;;;10.34;71.12
29417;BME280;28421;51.030;4.006;2022-12-29T05:15:03;100045.28;;;10.08;71.32
29417;BME280;28421;51.030;4.006;2022-12-29T05:17:30;100094.13;;;10.48;71.15
29417;BME280;28421;51.030;4.006;2022-12-29T05:19:55;100075.94;;;10.29;72.02
29417;BME280;28421;51.030;4.006;2022-12-29T05:22:21;100043.13;;;10.18;71.53
29417;BME280;28421;51.030;4.006;2022-12-29T05:24:46;100092.38;;;10.40;71.55
29417;BME280;28421;51.030;4.006;2022-12-29T05:27:12;100088.00;;;10.54;71.52
29417;BME280;28421;51.030;4.006;2022-12-29T05:30:13;100044.72;;;10.13;71.90
29417;BME280;28421;51.030;4.006;2022-12-29T05:32:39;100067.66;;;10.45;71.70
29417;BME280;28421;51.030;4.006;2022-12-29T05:35:06;100052.38;;;10.31;71.53
29417;BME280;28421;51.030;4.006;2022-12-29T05:37:32;100100.31;;;10.49;71.89
29417;BME280;28421;51.030;4.006;2022-12-29T05:39:58;100098.47;;;10.49;71.51
29417;BME280;28421;51.030;4.006;2022-12-29T05:42:24;100088.13;;;10.46;71.52
29417;BME280;28421;51.030;4.006;2022-12-29T05:45:04;100077.94;;;10.41;71.54
29417;BME280;28421;51.030;4.006;2022-12-29T05:47:51;100074.53;;;10.33;71.24
29417;BME280;28421;51.030;4.006;2022-12-29T05:50:28;100082.13;;;10.14;71.93
29417;BME280;28421;51.030;4.006;2022-12-29T05:53:07;100066.69;;;10.02;72.05
29417;BME280;28421;51.030;4.006;2022-12-29T05:55:34;100092.13;;;10.20;71.54
29417;BME280;28421;51.030;4.006;2022-12-29T05:57:59;100137.34;;;10.32;71.70
29417;BME280;28421;51.030;4.006;2022-12-29T06:00:25;100137.63;;;10.37;71.55
29417;BME280;28421;51.030;4.006;2022-12-29T06:02:51;100089.16;;;10.15;70.68
29417;BME280;28421;51.030;4.006;2022-12-29T06:05:17;100115.84;;;10.32;70.48
29417;BME280;28421;51.030;4.006;2022-12-29T06:07:44;100145.75;;;10.43;70.19
29417;BME280;28421;51.030;4.006;2022-12-29T06:10:10;100119.66;;;10.37;70.03
29417;BME280;28421;51.030;4.006;2022-12-29T06:12:56;100126.47;;;10.40;69.92
29417;BME280;28421;51.030;4.006;2022-12-29T06:15:21;100130.91;;;10.48;69.28
29417;BME280;28421;51.030;4.006;2022-12-29T06:17:49;100106.59;;;10.34;69.29
29417;BME280;28421;51.030;4.006;2022-12-29T06:20:14;100130.56;;;10.36;69.71
29417;BME280;28421;51.030;4.006;2022-12-29T06:22:40;100133.25;;;10.36;69.51
29417;BME280;28421;51.030;4.006;2022-12-29T06:25:06;100120.13;;;10.41;69.52
29417;BME280;28421;51.030;4.006;2022-12-29T06:27:33;100111.88;;;10.28;69.43
29417;BME280;28421;51.030;4.006;2022-12-29T06:29:59;100144.56;;;10.46;69.46
29417;BME280;28421;51.030;4.006;2022-12-29T06:32:25;100126.44;;;10.33;69.45
29417;BME280;28421;51.030;4.006;2022-12-29T06:34:53;100145.50;;;10.38;69.56
29417;BME280;28421;51.030;4.006;2022-12-29T06:37:18;100146.78;;;10.42;69.76
29417;BME280;28421;51.030;4.006;2022-12-29T06:39:44;100138.00;;;10.34;69.24
29417;BME280;28421;51.030;4.006;2022-12-29T06:42:13;100149.72;;;10.48;69.18
29417;BME280;28421;51.030;4.006;2022-12-29T06:44:41;100156.50;;;10.43;69.48
29417;BME280;28421;51.030;4.006;2022-12-29T06:47:09;100151.22;;;10.50;69.01
29417;BME280;28421;51.030;4.006;2022-12-29T06:49:34;100128.28;;;10.33;68.96
29417;BME280;28421;51.030;4.006;2022-12-29T06:51:59;100143.44;;;10.40;69.09
29417;BME280;28421;51.030;4.006;2022-12-29T06:54:26;100165.50;;;10.51;69.26
29417;BME280;28421;51.030;4.006;2022-12-29T06:56:51;100186.53;;;10.47;69.19
29417;BME280;28421;51.030;4.006;2022-12-29T06:59:17;100145.97;;;10.27;68.52
29417;BME280;28421;51.030;4.006;2022-12-29T07:01:42;100196.34;;;10.55;68.61
29417;BME280;28421;51.030;4.006;2022-12-29T07:04:07;100150.22;;;10.21;69.19
29417;BME280;28421;51.030;4.006;2022-12-29T07:06:33;100154.75;;;10.21;68.86
29417;BME280;28421;51.030;4.006;2022-12-29T07:08:58;100165.03;;;10.32;68.49
29417;BME280;28421;51.030;4.006;2022-12-29T07:11:24;100177.47;;;10.33;68.69
29417;BME280;28421;51.030;4.006;2022-12-29T07:13:49;100164.41;;;10.30;68.13
29417;BME280;28421;51.030;4.006;2022-12-29T07:16:15;100148.66;;;10.42;67.78
29417;BME280;28421;51.030;4.006;2022-12-29T07:18:41;100150.41;;;10.35;68.24
29417;BME280;28421;51.030;4.006;2022-12-29T07:21:07;100189.38;;;10.60;67.97
29417;BME280;28421;51.030;4.006;2022-12-29T07:23:32;100165.88;;;10.48;67.71
29417;BME280;28421;51.030;4.006;2022-12-29T07:26:09;100144.66;;;10.38;67.41
29417;BME280;28421;51.030;4.006;2022-12-29T07:28:36;100168.19;;;10.51;67.26
29417;BME280;28421;51.030;4.006;2022-12-29T07:31:04;100201.88;;;10.68;67.24
29417;BME280;28421;51.030;4.006;2022-12-29T07:33:30;100173.09;;;10.62;66.85
29417;BME280;28421;51.030;4.006;2022-12-29T07:35:56;100199.19;;;10.83;66.30
29417;BME280;28421;51.030;4.006;2022-12-29T07:38:21;100169.84;;;10.52;66.85
29417;BME280;28421;51.030;4.006;2022-12-29T07:40:47;100162.03;;;10.57;66.74
29417;BME280;28421;51.030;4.006;2022-12-29T07:43:12;100192.53;;;10.64;66.25
29417;BME280;28421;51.030;4.006;2022-12-29T07:45:45;100144.31;;;10.41;66.62
29417;BME280;28421;51.030;4.006;2022-12-29T07:48:11;100170.50;;;10.54;66.86
29417;BME280;28421;51.030;4.006;2022-12-29T07:50:36;100186.69;;;10.60;66.54
29417;BME280;28421;51.030;4.006;2022-12-29T07:53:03;100201.97;;;10.75;66.44
29417;BME280;28421;51.030;4.006;2022-12-29T07:55:28;100161.97;;;10.50;65.90
29417;BME280;28421;51.030;4.006;2022-12-29T07:57:55;100192.78;;;10.69;65.39
29417;BME280;28421;51.030;4.006;2022-12-29T08:00:21;100162.34;;;10.47;65.69
29417;BME280;28421;51.030;4.006;2022-12-29T08:02:47;100172.00;;;10.41;66.00
29417;BME280;28421;51.030;4.006;2022-12-29T08:05:12;100170.97;;;10.42;65.92
29417;BME280;28421;51.030;4.006;2022-12-29T08:07:38;100180.59;;;10.52;65.16
29417;BME280;28421;51.030;4.006;2022-12-29T08:10:04;100191.91;;;10.32;65.84
29417;BME280;28421;51.030;4.006;2022-12-29T08:12:30;100187.75;;;10.30;65.83
29417;BME280;28421;51.030;4.006;2022-12-29T08:14:55;100168.50;;;10.26;67.01
29417;BME280;28421;51.030;4.006;2022-12-29T08:17:21;100211.19;;;10.36;66.81
29417;BME280;28421;51.030;4.006;2022-12-29T08:19:46;100185.25;;;10.28;67.25
29417;BME280;28421;51.030;4.006;2022-12-29T08:22:13;100187.28;;;10.26;66.70
29417;BME280;28421;51.030;4.006;2022-12-29T08:24:39;100187.81;;;10.21;66.23
29417;BME280;28421;51.030;4.006;2022-12-29T08:27:04;100231.84;;;10.50;66.46
29417;BME280;28421;51.030;4.006;2022-12-29T08:29:30;100192.88;;;10.25;66.03
29417;BME280;28421;51.030;4.006;2022-12-29T08:31:55;100241.13;;;10.33;66.09
29417;BME280;28421;51.030;4.006;2022-12-29T08:34:21;100264.22;;;10.42;67.54
29417;BME280;28421;51.030;4.006;2022-12-29T08:36:46;100226.47;;;10.20;67.78
29417;BME280;28421;51.030;4.006;2022-12-29T08:39:12;100233.31;;;10.08;69.13
29417;BME280;28421;51.030;4.006;2022-12-29T08:41:37;100261.16;;;10.07;69.87
29417;BME280;28421;51.030;4.006;2022-12-29T08:44:03;100260.59;;;9.97;71.34
29417;BME280;28421;51.030;4.006;2022-12-29T08:46:28;100253.97;;;9.70;71.89
29417;BME280;28421;51.030;4.006;2022-12-29T08:48:54;100297.38;;;10.11;71.77
29417;BME280;28421;51.030;4.006;2022-12-29T08:51:19;100249.53;;;9.77;71.81
29417;BME280;28421;51.030;4.006;2022-12-29T08:53:45;100270.25;;;9.91;71.82
29417;BME280;28421;51.030;4.006;2022-12-29T08:56:10;100299.22;;;9.96;71.68
29417;BME280;28421;51.030;4.006;2022-12-29T08:58:46;100288.97;;;10.00;71.62
29417;BME280;28421;51.030;4.006;2022-12-29T09:01:11;100295.94;;;9.86;71.84
29417;BME280;28421;51.030;4.006;2022-12-29T09:03:37;100262.81;;;9.79;72.17
29417;BME280;28421;51.030;4.006;2022-12-29T09:06:03;100323.31;;;10.04;72.71
29417;BME280;28421;51.030;4.006;2022-12-29T09:08:28;100303.53;;;9.82;72.36
29417;BME280;28421;51.030;4.006;2022-12-29T09:10:53;100297.84;;;9.62;73.66
29417;BME280;28421;51.030;4.006;2022-12-29T09:13:19;100338.72;;;9.64;74.16
29417;BME280;28421;51.030;4.006;2022-12-29T09:15:45;100314.28;;;9.59;74.32
29417;BME280;28421;51.030;4.006;2022-12-29T09:18:11;100331.22;;;9.60;74.64
29417;BME280;28421;51.030;4.006;2022-12-29T09:20:37;100325.38;;;9.56;75.06
29417;BME280;28421;51.030;4.006;2022-12-29T09:23:03;100341.00;;;9.53;74.25
29417;BME280;28421;51.030;4.006;2022-12-29T09:25:29;100369.94;;;9.88;73.80
29417;BME280;28421;51.030;4.006;2022-12-29T09:27:54;100355.72;;;9.57;74.87
29417;BME280;28421;51.030;4.006;2022-12-29T09:30:21;100332.41;;;9.57;74.42
29417;BME280;28421;51.030;4.006;2022-12-29T09:32:48;100374.34;;;9.81;74.06
29417;BME280;28421;51.030;4.006;2022-12-29T09:35:14;100396.13;;;9.86;74.74
29417;BME280;28421;51.030;4.006;2022-12-29T09:37:40;100373.50;;;9.58;75.76
29417;BME280;28421;51.030;4.006;2022-12-29T09:40:06;100355.13;;;9.46;75.76
29417;BME280;28421;51.030;4.006;2022-12-29T09:42:39;100410.22;;;9.57;77.38
29417;BME280;28421;51.030;4.006;2022-12-29T09:45:15;100345.03;;;9.26;77.03
29417;BME280;28421;51.030;4.006;2022-12-29T09:47:45;100378.97;;;9.41;77.59
29417;BME280;28421;51.030;4.006;2022-12-29T09:52:54;100392.13;;;9.59;76.42
29417;BME280;28421;51.030;4.006;2022-12-29T09:55:47;100397.97;;;9.63;76.72
29417;BME280;28421;51.030;4.006;2022-12-29T09:58:21;100406.03;;;9.63;76.72
29417;BME280;28421;51.030;4.006;2022-12-29T10:00:52;100415.22;;;9.68;77.23
29417;BME280;28421;51.030;4.006;2022-12-29T10:03:21;100411.41;;;9.63;77.56
29417;BME280;28421;51.030;4.006;2022-12-29T10:05:56;100407.59;;;9.49;78.21
29417;BME280;28421;51.030;4.006;2022-12-29T10:14:24;100454.72;;;9.83;77.58
29417;BME280;28421;51.030;4.006;2022-12-29T10:24:59;100422.38;;;9.99;76.78
29417;BME280;28421;51.030;4.006;2022-12-29T10:27:31;100450.22;;;10.06;76.60
29417;BME280;28421;51.030;4.006;2022-12-29T10:29:58;100406.38;;;9.60;77.55
29417;BME280;28421;51.030;4.006;2022-12-29T10:32:34;100459.41;;;9.89;77.17
29417;BME280;28421;51.030;4.006;2022-12-29T10:35:21;100460.72;;;9.93;76.23
29417;BME280;28421;51.030;4.006;2022-12-29T10:37:58;100456.13;;;10.02;76.16
29417;BME280;28421;51.030;4.006;2022-12-29T10:40:38;100458.56;;;10.11;75.22
29417;BME280;28421;51.030;4.006;2022-12-29T10:43:25;100463.00;;;10.04;74.75
29417;BME280;28421;51.030;4.006;2022-12-29T10:45:57;100426.69;;;9.85;74.24
29417;BME280;28421;51.030;4.006;2022-12-29T10:48:28;100475.16;;;10.15;73.35
29417;BME280;28421;51.030;4.006;2022-12-29T10:50:57;100470.94;;;10.20;73.53
29417;BME280;28421;51.030;4.006;2022-12-29T10:53:27;100456.75;;;10.12;73.20
29417;BME280;28421;51.030;4.006;2022-12-29T10:55:56;100450.22;;;10.06;73.06
29417;BME280;28421;51.030;4.006;2022-12-29T10:58:22;100444.31;;;10.11;72.20
29417;BME280;28421;51.030;4.006;2022-12-29T11:00:51;100485.84;;;10.31;71.64
29417;BME280;28421;51.030;4.006;2022-12-29T11:08:35;100475.09;;;10.31;70.99
29417;BME280;28421;51.030;4.006;2022-12-29T11:11:04;100466.75;;;10.18;70.81
29417;BME280;28421;51.030;4.006;2022-12-29T11:13:51;100502.94;;;10.53;70.56
29417;BME280;28421;51.030;4.006;2022-12-29T11:16:30;100467.44;;;10.43;70.38
29417;BME280;28421;51.030;4.006;2022-12-29T11:18:56;100522.66;;;10.68;69.47
29417;BME280;28421;51.030;4.006;2022-12-29T11:21:34;100500.28;;;10.53;69.71
29417;BME280;28421;51.030;4.006;2022-12-29T11:24:18;100489.91;;;10.50;69.92
29417;BME280;28421;51.030;4.006;2022-12-29T11:26:44;100513.78;;;10.68;69.48
29417;BME280;28421;51.030;4.006;2022-12-29T11:31:45;100485.72;;;10.48;69.86
29417;BME280;28421;51.030;4.006;2022-12-29T11:36:47;100507.03;;;10.49;70.28
29417;BME280;28421;51.030;4.006;2022-12-29T11:42:30;100475.84;;;10.40;69.93
29417;BME280;28421;51.030;4.006;2022-12-29T11:45:04;100486.94;;;10.60;70.01
29417;BME280;28421;51.030;4.006;2022-12-29T11:47:31;100484.34;;;10.29;69.97
29417;BME280;28421;51.030;4.006;2022-12-29T11:50:00;100510.50;;;10.58;70.14
29417;BME280;28421;51.030;4.006;2022-12-29T11:52:30;100503.22;;;10.43;70.37
29417;BME280;28421;51.030;4.006;2022-12-29T11:54:58;100502.78;;;10.55;69.89
29417;BME280;28421;51.030;4.006;2022-12-29T11:57:26;100541.06;;;10.57;70.35
29417;BME280;28421;51.030;4.006;2022-12-29T11:59:55;100505.06;;;10.43;70.28
29417;BME280;28421;51.030;4.006;2022-12-29T12:02:36;100547.22;;;10.65;70.39
29417;BME280;28421;51.030;4.006;2022-12-29T12:08:00;100476.09;;;10.30;71.12
29417;BME280;28421;51.030;4.006;2022-12-29T12:10:38;100520.66;;;10.48;70.42
29417;BME280;28421;51.030;4.006;2022-12-29T12:16:02;100505.28;;;10.56;69.68
29417;BME280;28421;51.030;4.006;2022-12-29T12:18:53;100485.34;;;10.51;70.10
29417;BME280;28421;51.030;4.006;2022-12-29T12:21:27;100542.19;;;10.85;69.48
29417;BME280;28421;51.030;4.006;2022-12-29T12:27:28;100552.47;;;10.82;69.30
29417;BME280;28421;51.030;4.006;2022-12-29T12:30:02;100549.41;;;10.70;70.44
29417;BME280;28421;51.030;4.006;2022-12-29T12:32:50;100560.84;;;10.64;71.28
29417;BME280;28421;51.030;4.006;2022-12-29T12:41:04;100558.03;;;10.57;70.83
29417;BME280;28421;51.030;4.006;2022-12-29T12:43:39;100559.78;;;10.50;71.05
29417;BME280;28421;51.030;4.006;2022-12-29T12:49:02;100557.06;;;10.96;69.96
29417;BME280;28421;51.030;4.006;2022-12-29T12:51:40;100549.22;;;11.09;68.31
29417;BME280;28421;51.030;4.006;2022-12-29T12:54:46;100579.63;;;10.95;68.32
29417;BME280;28421;51.030;4.006;2022-12-29T13:00:19;100570.66;;;10.80;68.99
29417;BME280;28421;51.030;4.006;2022-12-29T13:03:10;100554.59;;;10.72;68.77
29417;BME280;28421;51.030;4.006;2022-12-29T13:25:41;100539.94;;;10.51;69.74
29417;BME280;28421;51.030;4.006;2022-12-29T13:36:59;100559.91;;;10.34;72.05
29417;BME280;28421;51.030;4.006;2022-12-29T13:39:33;100587.50;;;10.11;73.62
29417;BME280;28421;51.030;4.006;2022-12-29T13:42:01;100620.66;;;10.04;75.70
29417;BME280;28421;51.030;4.006;2022-12-29T13:44:37;100576.22;;;9.29;74.60
29417;BME280;28421;51.030;4.006;2022-12-29T13:47:16;100609.81;;;9.73;75.66
29417;BME280;28421;51.030;4.006;2022-12-29T13:49:46;100563.44;;;9.48;76.12
29417;BME280;28421;51.030;4.006;2022-12-29T13:52:24;100610.44;;;9.83;77.11
29417;BME280;28421;51.030;4.006;2022-12-29T13:55:02;100575.53;;;9.83;77.02
29417;BME280;28421;51.030;4.006;2022-12-29T14:00:16;100579.63;;;9.79;76.05
29417;BME280;28421;51.030;4.006;2022-12-29T14:05:45;100600.91;;;9.80;74.86
29417;BME280;28421;51.030;4.006;2022-12-29T14:08:16;100600.97;;;9.64;74.47
29417;BME280;28421;51.030;4.006;2022-12-29T14:10:51;100608.69;;;9.67;74.40
29417;BME280;28421;51.030;4.006;2022-12-29T14:13:22;100630.47;;;9.72;73.45
29417;BME280;28421;51.030;4.006;2022-12-29T14:15:54;100589.28;;;9.16;73.28
29417;BME280;28421;51.030;4.006;2022-12-29T14:18:24;100626.84;;;9.40;73.90
29417;BME280;28421;51.030;4.006;2022-12-29T14:20:57;100587.13;;;9.03;74.28
29417;BME280;28421;51.030;4.006;2022-12-29T14:23:35;100560.16;;;9.13;74.19
29417;BME280;28421;51.030;4.006;2022-12-29T14:28:34;100602.38;;;8.94;74.49
29417;BME280;28421;51.030;4.006;2022-12-29T14:31:02;100626.69;;;9.17;73.89
29417;BME280;28421;51.030;4.006;2022-12-29T14:33:33;100591.16;;;8.99;73.65
29417;BME280;28421;51.030;4.006;2022-12-29T14:36:21;100651.50;;;9.03;73.19
29417;BME280;28421;51.030;4.006;2022-12-29T14:38:50;100613.63;;;9.14;72.54
29417;BME280;28421;51.030;4.006;2022-12-29T14:41:40;100616.63;;;9.11;70.92
29417;BME280;28421;51.030;4.006;2022-12-29T14:49:21;100576.91;;;8.90;71.60
29417;BME280;28421;51.030;4.006;2022-12-29T14:51:51;100624.66;;;9.28;70.99
29417;BME280;28421;51.030;4.006;2022-12-29T14:54:43;100609.59;;;9.02;71.54
29417;BME280;28421;51.030;4.006;2022-12-29T14:57:35;100617.13;;;9.15;71.57
29417;BME280;28421;51.030;4.006;2022-12-29T15:00:24;100627.03;;;9.14;71.06
29417;BME280;28421;51.030;4.006;2022-12-29T15:03:14;100612.59;;;8.91;71.14
29417;BME280;28421;51.030;4.006;2022-12-29T15:05:52;100637.56;;;8.91;70.60
29417;BME280;28421;51.030;4.006;2022-12-29T15:08:20;100635.75;;;8.76;71.16
29417;BME280;28421;51.030;4.006;2022-12-29T15:13:23;100671.09;;;9.20;70.62
29417;BME280;28421;51.030;4.006;2022-12-29T15:15:50;100625.03;;;8.92;71.00
29417;BME280;28421;51.030;4.006;2022-12-29T15:18:28;100666.25;;;9.15;71.05
29417;BME280;28421;51.030;4.006;2022-12-29T15:21:03;100664.91;;;9.11;70.80
29417;BME280;28421;51.030;4.006;2022-12-29T15:23:31;100582.63;;;8.79;70.74
29417;BME280;28421;51.030;4.006;2022-12-29T15:26:03;100667.91;;;9.16;70.72
29417;BME280;28421;51.030;4.006;2022-12-29T15:28:56;100665.91;;;8.86;70.73
29417;BME280;28421;51.030;4.006;2022-12-29T15:31:23;100636.22;;;8.87;70.84
29417;BME280;28421;51.030;4.006;2022-12-29T15:33:51;100693.91;;;9.08;71.16